F/V Manathia — FGSL — position and weather

sailwx.info

Track history (hours):
 
Tides and Currents Weather Stations Pressure Air Temp Water Temp Dewpoint Dewpoint Depression Visibility Wind Speed Wind Dir Waves Ship Positions

F/V Manathia

Last reported at 2016-Jun-28 06:33 UTC. Time now 2016-Jun-28 20:41 UTC.
Position N 47°43' W 005°03'.

Length 16 m.

Type: Fishing. MMSI: 228258000.

Date/timePositionNaut miles runAvg speedWind from/ knotsBaromVisibWave heightAir tempDewpointWater temp
2016-Jun-28 06:33N 47°43' W 005°03'7 3.0
2016-Jun-28 04:22N 47°41' W 004°53'23 7.7
2016-Jun-28 01:24N 47°46' W 004°20'26 1.8
2016-Jun-27 10:26N 47°43' W 004°59'  
2016-Jun-24 10:25N 47°43' W 004°45'3 3.1
2016-Jun-24 09:25N 47°45' W 004°41'4 4.0
2016-Jun-24 08:26N 47°49' W 004°40'2 2.7
2016-Jun-24 07:32N 47°48' W 004°37'1 0.4
2016-Jun-24 04:17N 47°49' W 004°38'3 4.0
2016-Jun-24 03:33N 47°48' W 004°34'10 9.4
2016-Jun-24 02:28N 47°46' W 004°19'12 0.8
2016-Jun-23 11:33N 47°49' W 004°36'2 2.3
2016-Jun-23 10:33N 47°49' W 004°33'3 1.5
2016-Jun-23 08:32N 47°49' W 004°37'2 1.6
2016-Jun-23 07:33N 47°49' W 004°35'1 0.3
2016-Jun-23 05:33N 47°49' W 004°36'2 1.1
2016-Jun-23 04:10N 47°50' W 004°34'2 3.4
2016-Jun-23 03:33N 47°49' W 004°32'25 1.9
2016-Jun-22 14:28N 47°33' W 004°04'5 4.4
2016-Jun-22 13:25N 47°31' W 003°58'3 3.3
2016-Jun-22 12:34N 47°30' W 003°54'4 3.5
2016-Jun-22 11:33N 47°28' W 003°50'3 3.2
2016-Jun-22 10:33N 47°27' W 003°45'3 3.2
2016-Jun-22 09:30N 47°24' W 003°43'4 3.8
2016-Jun-22 08:34N 47°24' W 003°38'3 3.3
2016-Jun-22 07:34N 47°27' W 003°35'4 3.8
2016-Jun-22 06:34N 47°30' W 003°34'3 3.2
2016-Jun-22 05:33N 47°33' W 003°37'3 3.1
2016-Jun-22 04:34N 47°35' W 003°41'5 5.1
2016-Jun-22 03:34N 47°36' W 003°48'9 0.5
2016-Jun-21 11:19N 47°35' W 004°01'3 3.2
2016-Jun-21 10:31N 47°34' W 003°58'3 3.2
2016-Jun-21 09:33N 47°33' W 003°53'3 3.0
2016-Jun-21 08:33N 47°32' W 003°49'4 3.0
2016-Jun-21 07:21N 47°33' W 003°54'2 0.9
2016-Jun-21 05:33N 47°34' W 003°52'1 0.7
2016-Jun-21 04:32N 47°34' W 003°53'4 0.2
2016-Jun-20 10:30N 47°35' W 003°58'4 2.9
2016-Jun-20 09:17N 47°34' W 003°53'2 2.2
2016-Jun-20 08:33N 47°33' W 003°51'2 2.0
2016-Jun-20 07:30N 47°34' W 003°53'1 0.9
2016-Jun-20 06:23N 47°34' W 003°55'2 2.7
2016-Jun-20 05:33N 47°34' W 003°52'1 1.1
2016-Jun-20 04:33N 47°34' W 003°53'  
Track history (hours):
 
Tides and Currents Weather Stations Pressure Air Temp Water Temp Dewpoint Dewpoint Depression Visibility Wind Speed Wind Dir Waves Ship Positions

F/V Manathia

Last reported at 2016-Jun-28 06:33 UTC. Time now 2016-Jun-28 20:41 UTC.
Position N 47°43' W 005°03'.

Length 16 m.

Type: Fishing. MMSI: 228258000.

Date/timePositionNaut miles runAvg speedWind from/ knotsBaromVisibWave heightAir tempDewpointWater temp
2016-Jun-28 06:33N 47°43' W 005°03'7 3.0
2016-Jun-28 04:22N 47°41' W 004°53'23 7.7
2016-Jun-28 01:24N 47°46' W 004°20'26 1.8
2016-Jun-27 10:26N 47°43' W 004°59'  
2016-Jun-24 10:25N 47°43' W 004°45'3 3.1
2016-Jun-24 09:25N 47°45' W 004°41'4 4.0
2016-Jun-24 08:26N 47°49' W 004°40'2 2.7
2016-Jun-24 07:32N 47°48' W 004°37'1 0.4
2016-Jun-24 04:17N 47°49' W 004°38'3 4.0
2016-Jun-24 03:33N 47°48' W 004°34'10 9.4
2016-Jun-24 02:28N 47°46' W 004°19'12 0.8
2016-Jun-23 11:33N 47°49' W 004°36'2 2.3
2016-Jun-23 10:33N 47°49' W 004°33'3 1.5
2016-Jun-23 08:32N 47°49' W 004°37'2 1.6
2016-Jun-23 07:33N 47°49' W 004°35'1 0.3
2016-Jun-23 05:33N 47°49' W 004°36'2 1.1
2016-Jun-23 04:10N 47°50' W 004°34'2 3.4
2016-Jun-23 03:33N 47°49' W 004°32'25 1.9
2016-Jun-22 14:28N 47°33' W 004°04'5 4.4
2016-Jun-22 13:25N 47°31' W 003°58'3 3.3
2016-Jun-22 12:34N 47°30' W 003°54'4 3.5
2016-Jun-22 11:33N 47°28' W 003°50'3 3.2
2016-Jun-22 10:33N 47°27' W 003°45'3 3.2
2016-Jun-22 09:30N 47°24' W 003°43'4 3.8
2016-Jun-22 08:34N 47°24' W 003°38'3 3.3
2016-Jun-22 07:34N 47°27' W 003°35'4 3.8
2016-Jun-22 06:34N 47°30' W 003°34'3 3.2
2016-Jun-22 05:33N 47°33' W 003°37'3 3.1
2016-Jun-22 04:34N 47°35' W 003°41'5 5.1
2016-Jun-22 03:34N 47°36' W 003°48'9 0.5
2016-Jun-21 11:19N 47°35' W 004°01'3 3.2
2016-Jun-21 10:31N 47°34' W 003°58'3 3.2
2016-Jun-21 09:33N 47°33' W 003°53'3 3.0
2016-Jun-21 08:33N 47°32' W 003°49'4 3.0
2016-Jun-21 07:21N 47°33' W 003°54'2 0.9
2016-Jun-21 05:33N 47°34' W 003°52'1 0.7
2016-Jun-21 04:32N 47°34' W 003°53'4 0.2
2016-Jun-20 10:30N 47°35' W 003°58'4 2.9
2016-Jun-20 09:17N 47°34' W 003°53'2 2.2
2016-Jun-20 08:33N 47°33' W 003°51'2 2.0
2016-Jun-20 07:30N 47°34' W 003°53'1 0.9
2016-Jun-20 06:23N 47°34' W 003°55'2 2.7
2016-Jun-20 05:33N 47°34' W 003°52'1 1.1
2016-Jun-20 04:33N 47°34' W 003°53'  

Dump ship's entire track history